sensor_id;sensor_type;location;lat;lon;timestamp;temperature;humidity
4604;DHT22;2314;48.272;11.562;2024-01-07T00:00:41;2.80;99.90
4604;DHT22;2314;48.272;11.562;2024-01-07T00:03:08;2.70;99.90
4604;DHT22;2314;48.272;11.562;2024-01-07T00:05:36;2.70;99.90
4604;DHT22;2314;48.272;11.562;2024-01-07T00:08:04;2.70;99.90
4604;DHT22;2314;48.272;11.562;2024-01-07T00:10:33;2.70;99.90
4604;DHT22;2314;48.272;11.562;2024-01-07T00:13:00;2.70;99.90
4604;DHT22;2314;48.272;11.562;2024-01-07T00:15:27;2.70;99.90
4604;DHT22;2314;48.272;11.562;2024-01-07T00:17:54;2.70;99.90
4604;DHT22;2314;48.272;11.562;2024-01-07T00:20:21;2.70;99.90
4604;DHT22;2314;48.272;11.562;2024-01-07T00:22:47;2.70;99.90
4604;DHT22;2314;48.272;11.562;2024-01-07T00:25:14;2.60;99.90
4604;DHT22;2314;48.272;11.562;2024-01-07T00:27:42;2.60;99.90
4604;DHT22;2314;48.272;11.562;2024-01-07T00:30:10;2.50;99.90
4604;DHT22;2314;48.272;11.562;2024-01-07T00:32:38;2.50;99.90
4604;DHT22;2314;48.272;11.562;2024-01-07T00:35:05;2.50;99.90
4604;DHT22;2314;48.272;11.562;2024-01-07T00:37:33;2.50;99.90
4604;DHT22;2314;48.272;11.562;2024-01-07T00:40:00;2.50;99.90
4604;DHT22;2314;48.272;11.562;2024-01-07T00:42:27;2.50;99.90
4604;DHT22;2314;48.272;11.562;2024-01-07T00:44:56;2.50;99.90
4604;DHT22;2314;48.272;11.562;2024-01-07T00:47:23;2.50;99.90
4604;DHT22;2314;48.272;11.562;2024-01-07T00:49:50;2.50;99.90
4604;DHT22;2314;48.272;11.562;2024-01-07T00:52:17;2.50;99.90
4604;DHT22;2314;48.272;11.562;2024-01-07T00:54:44;2.50;99.90
4604;DHT22;2314;48.272;11.562;2024-01-07T00:57:11;2.60;99.90
4604;DHT22;2314;48.272;11.562;2024-01-07T00:59:38;2.50;99.90
4604;DHT22;2314;48.272;11.562;2024-01-07T01:02:07;2.50;99.90
4604;DHT22;2314;48.272;11.562;2024-01-07T01:04:34;2.50;99.90
4604;DHT22;2314;48.272;11.562;2024-01-07T01:07:01;2.50;99.90
4604;DHT22;2314;48.272;11.562;2024-01-07T01:09:28;2.40;99.90
4604;DHT22;2314;48.272;11.562;2024-01-07T01:11:55;2.30;99.90
4604;DHT22;2314;48.272;11.562;2024-01-07T01:14:22;2.20;99.90
4604;DHT22;2314;48.272;11.562;2024-01-07T01:16:49;2.20;99.90
4604;DHT22;2314;48.272;11.562;2024-01-07T01:19:18;2.20;99.90
4604;DHT22;2314;48.272;11.562;2024-01-07T01:21:45;2.10;99.90
4604;DHT22;2314;48.272;11.562;2024-01-07T01:24:12;2.10;99.90
4604;DHT22;2314;48.272;11.562;2024-01-07T01:26:39;2.10;99.90
4604;DHT22;2314;48.272;11.562;2024-01-07T01:29:06;2.10;99.90
4604;DHT22;2314;48.272;11.562;2024-01-07T01:31:33;2.10;99.90
4604;DHT22;2314;48.272;11.562;2024-01-07T01:34:00;2.10;99.90
4604;DHT22;2314;48.272;11.562;2024-01-07T01:36:30;2.10;99.90
4604;DHT22;2314;48.272;11.562;2024-01-07T01:38:58;2.10;99.90
4604;DHT22;2314;48.272;11.562;2024-01-07T01:41:25;2.10;99.90
4604;DHT22;2314;48.272;11.562;2024-01-07T01:43:51;2.20;99.90
4604;DHT22;2314;48.272;11.562;2024-01-07T01:46:23;2.20;99.90
4604;DHT22;2314;48.272;11.562;2024-01-07T01:48:50;2.10;99.90
4604;DHT22;2314;48.272;11.562;2024-01-07T01:51:18;2.10;99.90
4604;DHT22;2314;48.272;11.562;2024-01-07T01:53:48;2.00;99.90
4604;DHT22;2314;48.272;11.562;2024-01-07T01:56:17;2.10;99.90
4604;DHT22;2314;48.272;11.562;2024-01-07T01:58:46;2.10;99.90
4604;DHT22;2314;48.272;11.562;2024-01-07T02:01:13;2.10;99.90
4604;DHT22;2314;48.272;11.562;2024-01-07T02:03:40;2.10;99.90
4604;DHT22;2314;48.272;11.562;2024-01-07T02:06:08;2.00;99.90
4604;DHT22;2314;48.272;11.562;2024-01-07T02:08:36;2.10;99.90
4604;DHT22;2314;48.272;11.562;2024-01-07T02:11:16;2.00;99.90
4604;DHT22;2314;48.272;11.562;2024-01-07T02:13:44;2.00;99.90
4604;DHT22;2314;48.272;11.562;2024-01-07T02:16:11;2.10;99.90
4604;DHT22;2314;48.272;11.562;2024-01-07T02:18:40;2.00;99.90
4604;DHT22;2314;48.272;11.562;2024-01-07T02:21:09;2.00;99.90
4604;DHT22;2314;48.272;11.562;2024-01-07T02:23:37;2.00;99.90
4604;DHT22;2314;48.272;11.562;2024-01-07T02:26:05;2.00;99.90
4604;DHT22;2314;48.272;11.562;2024-01-07T02:28:33;1.90;99.90
4604;DHT22;2314;48.272;11.562;2024-01-07T02:31:00;2.00;99.90
4604;DHT22;2314;48.272;11.562;2024-01-07T02:33:27;1.90;99.90
4604;DHT22;2314;48.272;11.562;2024-01-07T02:35:54;1.90;99.90
4604;DHT22;2314;48.272;11.562;2024-01-07T02:38:21;1.90;99.90
4604;DHT22;2314;48.272;11.562;2024-01-07T02:40:48;1.90;99.90
4604;DHT22;2314;48.272;11.562;2024-01-07T02:43:17;1.90;99.90
4604;DHT22;2314;48.272;11.562;2024-01-07T02:45:44;1.90;99.90
4604;DHT22;2314;48.272;11.562;2024-01-07T02:48:11;1.90;99.90
4604;DHT22;2314;48.272;11.562;2024-01-07T02:50:38;1.90;99.90
4604;DHT22;2314;48.272;11.562;2024-01-07T02:53:05;1.90;99.90
4604;DHT22;2314;48.272;11.562;2024-01-07T02:55:33;2.00;99.90
4604;DHT22;2314;48.272;11.562;2024-01-07T02:58:01;2.00;99.90
4604;DHT22;2314;48.272;11.562;2024-01-07T03:00:29;2.00;99.90
4604;DHT22;2314;48.272;11.562;2024-01-07T03:02:56;2.00;99.90
4604;DHT22;2314;48.272;11.562;2024-01-07T03:05:23;2.00;99.90
4604;DHT22;2314;48.272;11.562;2024-01-07T03:07:50;2.00;99.90
4604;DHT22;2314;48.272;11.562;2024-01-07T03:10:17;2.10;99.90
4604;DHT22;2314;48.272;11.562;2024-01-07T03:12:44;2.10;99.90
4604;DHT22;2314;48.272;11.562;2024-01-07T03:15:11;2.10;99.90
4604;DHT22;2314;48.272;11.562;2024-01-07T03:17:40;2.00;99.90
4604;DHT22;2314;48.272;11.562;2024-01-07T03:20:08;2.00;99.90
4604;DHT22;2314;48.272;11.562;2024-01-07T03:22:35;2.00;99.90
4604;DHT22;2314;48.272;11.562;2024-01-07T03:25:03;2.10;99.90
4604;DHT22;2314;48.272;11.562;2024-01-07T03:27:31;2.10;99.90
4604;DHT22;2314;48.272;11.562;2024-01-07T03:29:58;2.10;99.90
4604;DHT22;2314;48.272;11.562;2024-01-07T03:32:25;2.10;99.90
4604;DHT22;2314;48.272;11.562;2024-01-07T03:34:53;2.20;99.90
4604;DHT22;2314;48.272;11.562;2024-01-07T03:37:20;2.20;99.90
4604;DHT22;2314;48.272;11.562;2024-01-07T03:39:47;2.10;99.90
4604;DHT22;2314;48.272;11.562;2024-01-07T03:42:14;2.20;99.90
4604;DHT22;2314;48.272;11.562;2024-01-07T03:44:41;2.20;99.90
4604;DHT22;2314;48.272;11.562;2024-01-07T03:47:08;2.20;99.90
4604;DHT22;2314;48.272;11.562;2024-01-07T03:49:36;2.20;99.90
4604;DHT22;2314;48.272;11.562;2024-01-07T03:52:06;2.30;99.90
4604;DHT22;2314;48.272;11.562;2024-01-07T03:54:33;2.30;99.90
4604;DHT22;2314;48.272;11.562;2024-01-07T03:57:00;2.30;99.90
4604;DHT22;2314;48.272;11.562;2024-01-07T03:59:27;2.30;99.90
4604;DHT22;2314;48.272;11.562;2024-01-07T04:01:56;2.30;99.90
4604;DHT22;2314;48.272;11.562;2024-01-07T04:04:23;2.30;99.90
4604;DHT22;2314;48.272;11.562;2024-01-07T04:06:50;2.30;99.90
4604;DHT22;2314;48.272;11.562;2024-01-07T04:09:19;2.40;99.90
4604;DHT22;2314;48.272;11.562;2024-01-07T04:11:46;2.40;99.90
4604;DHT22;2314;48.272;11.562;2024-01-07T04:14:14;2.30;99.90
4604;DHT22;2314;48.272;11.562;2024-01-07T04:16:41;2.30;99.90
4604;DHT22;2314;48.272;11.562;2024-01-07T04:19:08;2.40;99.90
4604;DHT22;2314;48.272;11.562;2024-01-07T04:21:35;2.30;99.90
4604;DHT22;2314;48.272;11.562;2024-01-07T04:24:03;2.20;99.90
4604;DHT22;2314;48.272;11.562;2024-01-07T04:26:32;2.20;99.90
4604;DHT22;2314;48.272;11.562;2024-01-07T04:28:58;2.10;99.90
4604;DHT22;2314;48.272;11.562;2024-01-07T04:31:25;2.00;99.90
4604;DHT22;2314;48.272;11.562;2024-01-07T04:33:52;2.00;99.90
4604;DHT22;2314;48.272;11.562;2024-01-07T04:36:19;2.00;99.90
4604;DHT22;2314;48.272;11.562;2024-01-07T04:38:46;2.00;99.90
4604;DHT22;2314;48.272;11.562;2024-01-07T04:41:13;1.90;99.90
4604;DHT22;2314;48.272;11.562;2024-01-07T04:43:43;1.80;99.90
4604;DHT22;2314;48.272;11.562;2024-01-07T04:46:11;1.80;99.90
4604;DHT22;2314;48.272;11.562;2024-01-07T04:48:38;1.80;99.90
4604;DHT22;2314;48.272;11.562;2024-01-07T04:51:05;1.70;99.90
4604;DHT22;2314;48.272;11.562;2024-01-07T04:53:33;1.70;99.90
4604;DHT22;2314;48.272;11.562;2024-01-07T04:56:00;1.60;99.90
4604;DHT22;2314;48.272;11.562;2024-01-07T04:58:28;1.60;99.90
4604;DHT22;2314;48.272;11.562;2024-01-07T05:00:56;1.70;99.90
4604;DHT22;2314;48.272;11.562;2024-01-07T05:03:23;1.70;99.90
4604;DHT22;2314;48.272;11.562;2024-01-07T05:05:50;1.70;99.90
4604;DHT22;2314;48.272;11.562;2024-01-07T05:08:17;1.70;99.90
4604;DHT22;2314;48.272;11.562;2024-01-07T05:10:44;1.80;99.90
4604;DHT22;2314;48.272;11.562;2024-01-07T05:13:11;1.80;99.90
4604;DHT22;2314;48.272;11.562;2024-01-07T05:15:38;1.80;99.90
4604;DHT22;2314;48.272;11.562;2024-01-07T05:18:08;1.80;99.90
4604;DHT22;2314;48.272;11.562;2024-01-07T05:20:36;1.80;99.90
4604;DHT22;2314;48.272;11.562;2024-01-07T05:23:03;1.70;99.90
4604;DHT22;2314;48.272;11.562;2024-01-07T05:25:30;1.70;99.90
4604;DHT22;2314;48.272;11.562;2024-01-07T05:27:57;1.70;99.90
4604;DHT22;2314;48.272;11.562;2024-01-07T05:30:24;1.70;99.90
4604;DHT22;2314;48.272;11.562;2024-01-07T05:32:51;1.80;99.90
4604;DHT22;2314;48.272;11.562;2024-01-07T05:35:19;1.70;99.90
4604;DHT22;2314;48.272;11.562;2024-01-07T05:37:46;1.70;99.90
4604;DHT22;2314;48.272;11.562;2024-01-07T05:40:13;1.70;99.90
4604;DHT22;2314;48.272;11.562;2024-01-07T05:42:40;1.70;99.90
4604;DHT22;2314;48.272;11.562;2024-01-07T05:45:08;1.80;99.90
4604;DHT22;2314;48.272;11.562;2024-01-07T05:47:35;1.70;99.90
4604;DHT22;2314;48.272;11.562;2024-01-07T05:50:03;1.60;99.90
4604;DHT22;2314;48.272;11.562;2024-01-07T05:52:31;1.70;99.90
4604;DHT22;2314;48.272;11.562;2024-01-07T05:54:58;1.70;99.90
4604;DHT22;2314;48.272;11.562;2024-01-07T05:57:25;1.60;99.90
4604;DHT22;2314;48.272;11.562;2024-01-07T05:59:53;1.70;99.90
4604;DHT22;2314;48.272;11.562;2024-01-07T06:02:20;1.70;99.90
4604;DHT22;2314;48.272;11.562;2024-01-07T06:04:48;1.60;99.90
4604;DHT22;2314;48.272;11.562;2024-01-07T06:07:15;1.60;99.90
4604;DHT22;2314;48.272;11.562;2024-01-07T06:09:43;1.40;99.90
4604;DHT22;2314;48.272;11.562;2024-01-07T06:12:10;1.40;99.90
4604;DHT22;2314;48.272;11.562;2024-01-07T06:14:37;1.40;99.90
4604;DHT22;2314;48.272;11.562;2024-01-07T06:17:04;1.20;99.90
4604;DHT22;2314;48.272;11.562;2024-01-07T06:19:31;1.20;99.90
4604;DHT22;2314;48.272;11.562;2024-01-07T06:21:58;1.30;99.90
4604;DHT22;2314;48.272;11.562;2024-01-07T06:24:25;1.30;99.90
4604;DHT22;2314;48.272;11.562;2024-01-07T06:26:53;1.20;99.90
4604;DHT22;2314;48.272;11.562;2024-01-07T06:29:20;1.20;99.90
4604;DHT22;2314;48.272;11.562;2024-01-07T06:31:47;1.10;99.90
4604;DHT22;2314;48.272;11.562;2024-01-07T06:34:15;1.20;99.90
4604;DHT22;2314;48.272;11.562;2024-01-07T06:36:41;1.20;99.90
4604;DHT22;2314;48.272;11.562;2024-01-07T06:39:08;1.20;99.90
4604;DHT22;2314;48.272;11.562;2024-01-07T06:41:36;1.20;99.90
4604;DHT22;2314;48.272;11.562;2024-01-07T06:44:04;1.20;99.90
4604;DHT22;2314;48.272;11.562;2024-01-07T06:46:31;1.20;99.90
4604;DHT22;2314;48.272;11.562;2024-01-07T06:48:59;1.20;99.90
4604;DHT22;2314;48.272;11.562;2024-01-07T06:51:26;1.30;99.90
4604;DHT22;2314;48.272;11.562;2024-01-07T06:53:53;1.20;99.90
4604;DHT22;2314;48.272;11.562;2024-01-07T06:56:20;1.20;99.90
4604;DHT22;2314;48.272;11.562;2024-01-07T06:58:47;1.20;99.90
4604;DHT22;2314;48.272;11.562;2024-01-07T07:01:19;1.10;99.90
4604;DHT22;2314;48.272;11.562;2024-01-07T07:03:48;1.10;99.90
4604;DHT22;2314;48.272;11.562;2024-01-07T07:06:15;1.20;99.90
4604;DHT22;2314;48.272;11.562;2024-01-07T07:08:42;1.10;99.90
4604;DHT22;2314;48.272;11.562;2024-01-07T07:11:09;1.00;99.90
4604;DHT22;2314;48.272;11.562;2024-01-07T07:13:36;1.00;99.90
4604;DHT22;2314;48.272;11.562;2024-01-07T07:16:05;1.00;99.90
4604;DHT22;2314;48.272;11.562;2024-01-07T07:18:34;0.90;99.90
4604;DHT22;2314;48.272;11.562;2024-01-07T07:21:01;0.90;99.90
4604;DHT22;2314;48.272;11.562;2024-01-07T07:23:28;0.90;99.90
4604;DHT22;2314;48.272;11.562;2024-01-07T07:25:55;1.00;99.90
4604;DHT22;2314;48.272;11.562;2024-01-07T07:28:22;1.00;99.90
4604;DHT22;2314;48.272;11.562;2024-01-07T07:30:49;1.00;99.90
4604;DHT22;2314;48.272;11.562;2024-01-07T07:33:17;1.00;99.90
4604;DHT22;2314;48.272;11.562;2024-01-07T07:35:45;1.00;99.90
4604;DHT22;2314;48.272;11.562;2024-01-07T07:38:12;1.00;99.90
4604;DHT22;2314;48.272;11.562;2024-01-07T07:40:40;1.00;99.90
4604;DHT22;2314;48.272;11.562;2024-01-07T07:43:08;1.00;99.90
4604;DHT22;2314;48.272;11.562;2024-01-07T07:45:35;1.00;99.90
4604;DHT22;2314;48.272;11.562;2024-01-07T07:48:02;1.00;99.90
4604;DHT22;2314;48.272;11.562;2024-01-07T07:50:30;1.00;99.90
4604;DHT22;2314;48.272;11.562;2024-01-07T07:52:59;0.90;99.90
4604;DHT22;2314;48.272;11.562;2024-01-07T07:55:26;1.00;99.90
4604;DHT22;2314;48.272;11.562;2024-01-07T07:57:54;1.00;99.90
4604;DHT22;2314;48.272;11.562;2024-01-07T08:00:21;1.00;99.90
4604;DHT22;2314;48.272;11.562;2024-01-07T08:02:48;0.90;99.90
4604;DHT22;2314;48.272;11.562;2024-01-07T08:05:15;0.90;99.90
4604;DHT22;2314;48.272;11.562;2024-01-07T08:07:42;0.90;99.90
4604;DHT22;2314;48.272;11.562;2024-01-07T08:10:11;0.90;99.90
4604;DHT22;2314;48.272;11.562;2024-01-07T08:12:38;0.90;99.90
4604;DHT22;2314;48.272;11.562;2024-01-07T08:15:06;0.80;99.90
4604;DHT22;2314;48.272;11.562;2024-01-07T08:17:34;0.90;99.90
4604;DHT22;2314;48.272;11.562;2024-01-07T08:20:01;0.90;99.90
4604;DHT22;2314;48.272;11.562;2024-01-07T08:22:29;0.90;99.90
4604;DHT22;2314;48.272;11.562;2024-01-07T08:24:56;0.90;99.90
4604;DHT22;2314;48.272;11.562;2024-01-07T08:27:24;1.00;99.90
4604;DHT22;2314;48.272;11.562;2024-01-07T08:29:52;1.00;99.90
4604;DHT22;2314;48.272;11.562;2024-01-07T08:32:19;1.00;99.90
4604;DHT22;2314;48.272;11.562;2024-01-07T08:34:48;1.00;99.90
4604;DHT22;2314;48.272;11.562;2024-01-07T08:37:15;1.00;99.90
4604;DHT22;2314;48.272;11.562;2024-01-07T08:39:42;1.00;99.90
4604;DHT22;2314;48.272;11.562;2024-01-07T08:42:09;0.90;99.90
4604;DHT22;2314;48.272;11.562;2024-01-07T08:44:37;1.00;99.90
4604;DHT22;2314;48.272;11.562;2024-01-07T08:47:05;1.00;99.90
4604;DHT22;2314;48.272;11.562;2024-01-07T08:49:32;1.10;99.90
4604;DHT22;2314;48.272;11.562;2024-01-07T08:52:00;1.10;99.90
4604;DHT22;2314;48.272;11.562;2024-01-07T08:54:27;1.10;99.90
4604;DHT22;2314;48.272;11.562;2024-01-07T08:56:54;1.10;99.90
4604;DHT22;2314;48.272;11.562;2024-01-07T08:59:21;1.10;99.90
4604;DHT22;2314;48.272;11.562;2024-01-07T09:01:49;1.10;99.90
4604;DHT22;2314;48.272;11.562;2024-01-07T09:04:16;1.00;99.90
4604;DHT22;2314;48.272;11.562;2024-01-07T09:06:44;1.10;99.90
4604;DHT22;2314;48.272;11.562;2024-01-07T09:09:11;1.00;99.90
4604;DHT22;2314;48.272;11.562;2024-01-07T09:11:38;1.00;99.90
4604;DHT22;2314;48.272;11.562;2024-01-07T09:14:05;1.00;99.90
4604;DHT22;2314;48.272;11.562;2024-01-07T09:16:33;1.10;99.90
4604;DHT22;2314;48.272;11.562;2024-01-07T09:19:02;1.10;99.90
4604;DHT22;2314;48.272;11.562;2024-01-07T09:21:29;1.10;99.90
4604;DHT22;2314;48.272;11.562;2024-01-07T09:23:56;1.10;99.90
4604;DHT22;2314;48.272;11.562;2024-01-07T09:26:23;1.10;99.90
4604;DHT22;2314;48.272;11.562;2024-01-07T09:28:50;1.20;99.90
4604;DHT22;2314;48.272;11.562;2024-01-07T09:31:17;1.10;99.90
4604;DHT22;2314;48.272;11.562;2024-01-07T09:33:44;1.10;99.90
4604;DHT22;2314;48.272;11.562;2024-01-07T09:36:12;1.20;99.90
4604;DHT22;2314;48.272;11.562;2024-01-07T09:38:40;1.10;99.90
4604;DHT22;2314;48.272;11.562;2024-01-07T09:41:07;1.10;99.90
4604;DHT22;2314;48.272;11.562;2024-01-07T09:43:34;1.10;99.90
4604;DHT22;2314;48.272;11.562;2024-01-07T09:46:02;1.10;99.90
4604;DHT22;2314;48.272;11.562;2024-01-07T09:48:30;1.20;99.90
4604;DHT22;2314;48.272;11.562;2024-01-07T09:50:57;1.10;99.90
4604;DHT22;2314;48.272;11.562;2024-01-07T09:53:31;1.10;99.90
4604;DHT22;2314;48.272;11.562;2024-01-07T09:56:06;1.20;99.90
4604;DHT22;2314;48.272;11.562;2024-01-07T09:58:36;1.20;99.90
4604;DHT22;2314;48.272;11.562;2024-01-07T10:01:04;1.30;99.90
4604;DHT22;2314;48.272;11.562;2024-01-07T10:03:32;1.30;99.90
4604;DHT22;2314;48.272;11.562;2024-01-07T10:05:59;1.40;99.90
4604;DHT22;2314;48.272;11.562;2024-01-07T10:08:27;1.40;99.90
4604;DHT22;2314;48.272;11.562;2024-01-07T10:10:54;1.30;99.90
4604;DHT22;2314;48.272;11.562;2024-01-07T10:13:22;1.30;99.90
4604;DHT22;2314;48.272;11.562;2024-01-07T10:15:49;1.30;99.90
4604;DHT22;2314;48.272;11.562;2024-01-07T10:18:18;1.40;99.90
4604;DHT22;2314;48.272;11.562;2024-01-07T10:20:45;1.50;99.90
4604;DHT22;2314;48.272;11.562;2024-01-07T10:23:12;1.50;99.90
4604;DHT22;2314;48.272;11.562;2024-01-07T10:25:41;1.40;99.90
4604;DHT22;2314;48.272;11.562;2024-01-07T10:28:08;1.40;99.90
4604;DHT22;2314;48.272;11.562;2024-01-07T10:30:38;1.30;99.90
4604;DHT22;2314;48.272;11.562;2024-01-07T10:33:07;1.30;99.90
4604;DHT22;2314;48.272;11.562;2024-01-07T10:35:35;1.30;99.90
4604;DHT22;2314;48.272;11.562;2024-01-07T10:38:03;1.30;99.90
4604;DHT22;2314;48.272;11.562;2024-01-07T10:40:31;1.20;99.90
4604;DHT22;2314;48.272;11.562;2024-01-07T10:43:02;1.30;99.90
4604;DHT22;2314;48.272;11.562;2024-01-07T10:45:29;1.30;99.90
4604;DHT22;2314;48.272;11.562;2024-01-07T10:47:59;1.40;99.90
4604;DHT22;2314;48.272;11.562;2024-01-07T10:50:31;1.30;99.90
4604;DHT22;2314;48.272;11.562;2024-01-07T10:53:03;1.30;99.90
4604;DHT22;2314;48.272;11.562;2024-01-07T10:55:35;1.40;99.90
4604;DHT22;2314;48.272;11.562;2024-01-07T10:58:04;1.50;99.90
4604;DHT22;2314;48.272;11.562;2024-01-07T11:00:32;1.50;99.90
4604;DHT22;2314;48.272;11.562;2024-01-07T11:03:07;1.50;99.90
4604;DHT22;2314;48.272;11.562;2024-01-07T11:05:40;1.30;99.90
4604;DHT22;2314;48.272;11.562;2024-01-07T11:08:15;1.30;99.90
4604;DHT22;2314;48.272;11.562;2024-01-07T11:10:50;1.30;99.90
4604;DHT22;2314;48.272;11.562;2024-01-07T11:13:37;1.30;99.90
4604;DHT22;2314;48.272;11.562;2024-01-07T11:16:05;1.30;99.90
4604;DHT22;2314;48.272;11.562;2024-01-07T11:18:38;1.20;99.90
4604;DHT22;2314;48.272;11.562;2024-01-07T11:21:05;1.20;99.90
4604;DHT22;2314;48.272;11.562;2024-01-07T11:23:33;1.20;99.90
4604;DHT22;2314;48.272;11.562;2024-01-07T11:26:03;1.20;99.90
4604;DHT22;2314;48.272;11.562;2024-01-07T11:28:48;1.10;99.90
4604;DHT22;2314;48.272;11.562;2024-01-07T11:31:18;1.00;99.90
4604;DHT22;2314;48.272;11.562;2024-01-07T11:33:46;1.00;99.90
4604;DHT22;2314;48.272;11.562;2024-01-07T11:36:15;0.90;99.90
4604;DHT22;2314;48.272;11.562;2024-01-07T11:38:43;0.90;99.90
4604;DHT22;2314;48.272;11.562;2024-01-07T11:41:12;0.90;99.90
4604;DHT22;2314;48.272;11.562;2024-01-07T11:43:53;0.90;99.90
4604;DHT22;2314;48.272;11.562;2024-01-07T11:46:21;0.90;99.90
4604;DHT22;2314;48.272;11.562;2024-01-07T11:48:49;0.90;99.90
4604;DHT22;2314;48.272;11.562;2024-01-07T11:51:17;0.80;99.90
4604;DHT22;2314;48.272;11.562;2024-01-07T11:53:47;0.80;99.90
4604;DHT22;2314;48.272;11.562;2024-01-07T11:56:14;0.80;99.90
4604;DHT22;2314;48.272;11.562;2024-01-07T11:58:41;0.80;99.90
4604;DHT22;2314;48.272;11.562;2024-01-07T12:01:09;0.70;99.90
4604;DHT22;2314;48.272;11.562;2024-01-07T12:03:36;0.70;99.90
4604;DHT22;2314;48.272;11.562;2024-01-07T12:06:04;0.70;99.90
4604;DHT22;2314;48.272;11.562;2024-01-07T12:08:31;0.70;99.90
4604;DHT22;2314;48.272;11.562;2024-01-07T12:10:59;0.70;99.90
4604;DHT22;2314;48.272;11.562;2024-01-07T12:13:27;0.60;99.90
4604;DHT22;2314;48.272;11.562;2024-01-07T12:15:54;0.70;99.90
4604;DHT22;2314;48.272;11.562;2024-01-07T12:18:23;0.70;99.90
4604;DHT22;2314;48.272;11.562;2024-01-07T12:20:55;0.70;99.90
4604;DHT22;2314;48.272;11.562;2024-01-07T12:23:23;0.70;99.90
4604;DHT22;2314;48.272;11.562;2024-01-07T12:25:51;0.70;99.90
4604;DHT22;2314;48.272;11.562;2024-01-07T12:28:18;0.60;99.90
4604;DHT22;2314;48.272;11.562;2024-01-07T12:30:47;0.60;99.90
4604;DHT22;2314;48.272;11.562;2024-01-07T12:33:17;0.60;99.90
4604;DHT22;2314;48.272;11.562;2024-01-07T12:35:46;0.70;99.90
4604;DHT22;2314;48.272;11.562;2024-01-07T12:38:13;0.60;99.90
4604;DHT22;2314;48.272;11.562;2024-01-07T12:40:40;0.50;99.90
4604;DHT22;2314;48.272;11.562;2024-01-07T12:43:07;0.40;99.90
4604;DHT22;2314;48.272;11.562;2024-01-07T12:45:34;0.40;99.90
4604;DHT22;2314;48.272;11.562;2024-01-07T12:48:02;0.40;99.90
4604;DHT22;2314;48.272;11.562;2024-01-07T12:50:29;0.40;99.90
4604;DHT22;2314;48.272;11.562;2024-01-07T12:52:58;0.40;99.90
4604;DHT22;2314;48.272;11.562;2024-01-07T12:55:26;0.50;99.90
4604;DHT22;2314;48.272;11.562;2024-01-07T12:57:55;0.40;99.90
4604;DHT22;2314;48.272;11.562;2024-01-07T13:00:22;0.40;99.90
4604;DHT22;2314;48.272;11.562;2024-01-07T13:02:49;0.40;99.90
4604;DHT22;2314;48.272;11.562;2024-01-07T13:05:16;0.30;99.90
4604;DHT22;2314;48.272;11.562;2024-01-07T13:07:44;0.30;99.90
4604;DHT22;2314;48.272;11.562;2024-01-07T13:10:32;0.40;99.90
4604;DHT22;2314;48.272;11.562;2024-01-07T13:12:59;0.50;99.90
4604;DHT22;2314;48.272;11.562;2024-01-07T13:15:26;0.50;99.90
4604;DHT22;2314;48.272;11.562;2024-01-07T13:17:53;0.50;99.90
4604;DHT22;2314;48.272;11.562;2024-01-07T13:20:20;0.60;99.90
4604;DHT22;2314;48.272;11.562;2024-01-07T13:22:47;0.60;99.90
4604;DHT22;2314;48.272;11.562;2024-01-07T13:25:14;0.60;99.90
4604;DHT22;2314;48.272;11.562;2024-01-07T13:27:42;0.50;99.90
4604;DHT22;2314;48.272;11.562;2024-01-07T13:30:10;0.50;99.90
4604;DHT22;2314;48.272;11.562;2024-01-07T13:32:37;0.50;99.90
4604;DHT22;2314;48.272;11.562;2024-01-07T13:35:07;0.60;99.90
4604;DHT22;2314;48.272;11.562;2024-01-07T13:37:35;0.60;99.90
4604;DHT22;2314;48.272;11.562;2024-01-07T13:40:03;0.70;99.90
4604;DHT22;2314;48.272;11.562;2024-01-07T13:42:31;0.50;99.90
4604;DHT22;2314;48.272;11.562;2024-01-07T13:45:00;0.40;99.90
4604;DHT22;2314;48.272;11.562;2024-01-07T13:47:28;0.40;99.90
4604;DHT22;2314;48.272;11.562;2024-01-07T13:49:55;0.30;99.90
4604;DHT22;2314;48.272;11.562;2024-01-07T13:52:22;0.30;99.90
4604;DHT22;2314;48.272;11.562;2024-01-07T13:54:49;0.30;99.90
4604;DHT22;2314;48.272;11.562;2024-01-07T13:57:16;0.30;99.90
4604;DHT22;2314;48.272;11.562;2024-01-07T13:59:43;0.30;99.90
4604;DHT22;2314;48.272;11.562;2024-01-07T14:02:12;0.30;99.90
4604;DHT22;2314;48.272;11.562;2024-01-07T14:04:39;0.30;99.90
4604;DHT22;2314;48.272;11.562;2024-01-07T14:07:05;0.30;99.90
4604;DHT22;2314;48.272;11.562;2024-01-07T14:09:32;0.30;99.90
4604;DHT22;2314;48.272;11.562;2024-01-07T14:11:59;0.30;99.90
4604;DHT22;2314;48.272;11.562;2024-01-07T14:14:28;0.40;99.90
4604;DHT22;2314;48.272;11.562;2024-01-07T14:16:55;0.40;99.90
4604;DHT22;2314;48.272;11.562;2024-01-07T14:19:23;0.50;99.90
4604;DHT22;2314;48.272;11.562;2024-01-07T14:21:50;0.40;99.90
4604;DHT22;2314;48.272;11.562;2024-01-07T14:24:17;0.30;99.90
4604;DHT22;2314;48.272;11.562;2024-01-07T14:26:44;0.30;99.90
4604;DHT22;2314;48.272;11.562;2024-01-07T14:29:11;0.20;99.90
4604;DHT22;2314;48.272;11.562;2024-01-07T14:31:39;0.30;99.90
4604;DHT22;2314;48.272;11.562;2024-01-07T14:34:07;0.30;99.90
4604;DHT22;2314;48.272;11.562;2024-01-07T14:36:39;0.30;99.90
4604;DHT22;2314;48.272;11.562;2024-01-07T14:39:07;0.20;99.90
4604;DHT22;2314;48.272;11.562;2024-01-07T14:41:35;0.10;99.90
4604;DHT22;2314;48.272;11.562;2024-01-07T14:44:02;0.10;99.90
4604;DHT22;2314;48.272;11.562;2024-01-07T14:46:29;0.10;99.90
4604;DHT22;2314;48.272;11.562;2024-01-07T14:48:56;0.10;99.90
4604;DHT22;2314;48.272;11.562;2024-01-07T14:51:23;0.10;99.90
4604;DHT22;2314;48.272;11.562;2024-01-07T14:53:52;0.10;99.90
4604;DHT22;2314;48.272;11.562;2024-01-07T14:56:19;0.10;99.90
4604;DHT22;2314;48.272;11.562;2024-01-07T14:58:46;0.00;99.90
4604;DHT22;2314;48.272;11.562;2024-01-07T15:01:13;-0.10;99.90
4604;DHT22;2314;48.272;11.562;2024-01-07T15:03:41;0.00;99.90
4604;DHT22;2314;48.272;11.562;2024-01-07T15:06:08;-0.10;99.90
4604;DHT22;2314;48.272;11.562;2024-01-07T15:08:36;0.00;99.90
4604;DHT22;2314;48.272;11.562;2024-01-07T15:11:04;-0.10;99.90
4604;DHT22;2314;48.272;11.562;2024-01-07T15:13:31;0.00;99.90
4604;DHT22;2314;48.272;11.562;2024-01-07T15:16:00;0.00;99.90
4604;DHT22;2314;48.272;11.562;2024-01-07T15:18:27;0.00;99.90
4604;DHT22;2314;48.272;11.562;2024-01-07T15:20:54;0.00;99.90
4604;DHT22;2314;48.272;11.562;2024-01-07T15:23:21;0.00;99.90
4604;DHT22;2314;48.272;11.562;2024-01-07T15:25:48;0.00;99.90
4604;DHT22;2314;48.272;11.562;2024-01-07T15:28:16;-0.10;99.90
4604;DHT22;2314;48.272;11.562;2024-01-07T15:30:43;-0.10;99.90
4604;DHT22;2314;48.272;11.562;2024-01-07T15:33:10;0.20;99.90
4604;DHT22;2314;48.272;11.562;2024-01-07T15:35:37;0.10;99.90
4604;DHT22;2314;48.272;11.562;2024-01-07T15:38:04;0.00;99.90
4604;DHT22;2314;48.272;11.562;2024-01-07T15:40:31;-0.10;99.90
4604;DHT22;2314;48.272;11.562;2024-01-07T15:42:58;-0.10;99.90
4604;DHT22;2314;48.272;11.562;2024-01-07T15:45:27;-0.10;99.90
4604;DHT22;2314;48.272;11.562;2024-01-07T15:47:54;-0.10;99.90
4604;DHT22;2314;48.272;11.562;2024-01-07T15:50:21;-0.30;99.90
4604;DHT22;2314;48.272;11.562;2024-01-07T15:52:48;-0.40;99.90
4604;DHT22;2314;48.272;11.562;2024-01-07T15:55:15;-0.40;99.90
4604;DHT22;2314;48.272;11.562;2024-01-07T15:57:43;-0.40;99.90
4604;DHT22;2314;48.272;11.562;2024-01-07T16:00:11;-0.40;99.90
4604;DHT22;2314;48.272;11.562;2024-01-07T16:02:41;-0.40;99.90
4604;DHT22;2314;48.272;11.562;2024-01-07T16:05:08;-0.40;99.90